Time;durP1;ratioP1;P1;durP2;ratioP2;P2;SDS_P1;SDS_P2;PMS_P1;PMS_P2;Temp;Humidity;BMP_temperature;BMP_pressure;BME280_temperature;BME280_humidity;BME280_pressure;Samples;Min_cycle;Max_cycle;Signal;HPM_P1;HPM_P2
2023/05/29 00:00:29;;;;;;;17.63;3.22;;;9.70;99.90;;;;;;5036364;28;20051;-81
2023/05/29 00:02:55;;;;;;;17.45;3.25;;;9.70;99.90;;;;;;5033972;28;20065;-81
2023/05/29 00:05:20;;;;;;;19.10;3.60;;;9.60;99.90;;;;;;5017172;28;20037;-81
2023/05/29 00:07:47;;;;;;;19.92;3.20;;;9.60;99.90;;;;;;5032398;28;20119;-81
2023/05/29 00:10:12;;;;;;;17.42;3.35;;;9.60;99.90;;;;;;5032486;28;20049;-82
2023/05/29 00:12:39;;;;;;;16.65;3.20;;;9.60;99.90;;;;;;5015513;28;20046;-82
2023/05/29 00:15:05;;;;;;;18.73;3.97;;;9.50;99.90;;;;;;5011532;28;20139;-82
2023/05/29 00:17:32;;;;;;;17.33;3.20;;;9.50;99.90;;;;;;5033323;28;20052;-81
2023/05/29 00:19:59;;;;;;;17.35;3.70;;;9.50;99.90;;;;;;5032569;28;20057;-82
2023/05/29 00:22:25;;;;;;;15.23;3.05;;;9.50;99.90;;;;;;5032813;28;20473;-82
2023/05/29 00:24:52;;;;;;;15.77;2.97;;;9.50;99.90;;;;;;5033258;28;20033;-82
2023/05/29 00:27:19;;;;;;;20.73;3.65;;;9.50;99.90;;;;;;5014149;28;20490;-81
2023/05/29 00:29:46;;;;;;;14.80;2.78;;;9.40;99.90;;;;;;5018239;28;20038;-82
2023/05/29 00:32:12;;;;;;;15.43;2.97;;;9.40;99.90;;;;;;5032181;28;20405;-81
2023/05/29 00:34:38;;;;;;;13.80;2.95;;;9.40;99.90;;;;;;5032118;28;20049;-82
2023/05/29 00:37:04;;;;;;;15.93;3.25;;;9.40;99.90;;;;;;5031044;28;20099;-82
2023/05/29 00:39:30;;;;;;;14.38;2.40;;;9.30;99.90;;;;;;5017727;28;20103;-82
2023/05/29 00:41:56;;;;;;;15.60;3.13;;;9.30;99.90;;;;;;5012402;28;20044;-82
2023/05/29 00:44:22;;;;;;;17.95;3.63;;;9.30;99.90;;;;;;5026397;28;20474;-82
2023/05/29 00:46:52;;;;;;;16.85;3.00;;;9.30;99.90;;;;;;5013249;28;20050;-82
2023/05/29 00:49:22;;;;;;;15.82;2.50;;;9.30;99.90;;;;;;5016167;28;20052;-82
2023/05/29 00:51:51;;;;;;;14.02;2.50;;;9.30;99.90;;;;;;5033579;28;20051;-83
2023/05/29 00:54:21;;;;;;;15.90;2.78;;;9.20;99.90;;;;;;5016846;28;20103;-82
2023/05/29 00:56:47;;;;;;;17.33;2.85;;;9.20;99.90;;;;;;5026061;28;20076;-82
2023/05/29 00:59:14;;;;;;;13.35;2.78;;;9.20;99.90;;;;;;5015788;28;20038;-82
2023/05/29 01:01:40;;;;;;;15.38;2.38;;;9.20;99.90;;;;;;5015401;28;20490;-82
2023/05/29 01:04:07;;;;;;;14.35;3.22;;;9.20;99.90;;;;;;4999223;28;20050;-82
2023/05/29 01:06:33;;;;;;;15.73;3.15;;;9.20;99.90;;;;;;5030372;28;20398;-82
2023/05/29 01:08:59;;;;;;;17.13;3.10;;;9.10;99.90;;;;;;5016430;28;20490;-82
2023/05/29 01:11:36;;;;;;;15.30;2.95;;;9.10;99.90;;;;;;5032274;28;20038;-82
2023/05/29 01:14:07;;;;;;;15.85;2.90;;;9.10;99.90;;;;;;5033560;28;20037;-82
2023/05/29 01:16:47;;;;;;;18.52;2.55;;;9.10;99.90;;;;;;5030251;28;20030;-82
2023/05/29 01:19:40;;;;;;;12.52;2.55;;;9.00;99.90;;;;;;5027475;28;20046;-82
2023/05/29 01:22:26;;;;;;;17.90;3.10;;;9.00;99.90;;;;;;5043004;28;20103;-82
2023/05/29 01:25:04;;;;;;;16.23;3.13;;;9.00;99.90;;;;;;5025539;28;20463;-82
2023/05/29 01:27:32;;;;;;;15.93;2.60;;;9.00;99.90;;;;;;5014363;28;20049;-81
2023/05/29 01:30:00;;;;;;;22.42;3.53;;;8.90;99.90;;;;;;5016850;28;20054;-82
2023/05/29 01:32:27;;;;;;;15.88;2.47;;;9.00;99.90;;;;;;5014630;28;20045;-81
2023/05/29 01:34:53;;;;;;;16.70;2.60;;;8.90;99.90;;;;;;4998902;28;20068;-81
2023/05/29 01:37:18;;;;;;;14.40;2.53;;;8.90;99.90;;;;;;5011240;28;20405;-82
2023/05/29 01:39:44;;;;;;;18.00;2.88;;;8.90;99.90;;;;;;5012092;28;20041;-82
2023/05/29 01:42:11;;;;;;;17.40;2.83;;;8.90;99.90;;;;;;5015121;28;20029;-81
2023/05/29 01:44:40;;;;;;;17.10;3.08;;;8.90;99.90;;;;;;5033411;28;20037;-81
2023/05/29 01:47:07;;;;;;;12.75;2.28;;;8.90;99.90;;;;;;5019202;28;20099;-82
2023/05/29 01:49:34;;;;;;;14.85;2.28;;;8.90;99.90;;;;;;5016749;28;20473;-81
2023/05/29 01:52:00;;;;;;;17.20;3.72;;;8.80;99.90;;;;;;5020144;28;20413;-81
2023/05/29 01:54:26;;;;;;;15.38;3.30;;;8.80;99.90;;;;;;5017423;28;20053;-82
2023/05/29 01:56:51;;;;;;;12.57;2.20;;;8.80;99.90;;;;;;5035160;28;20065;-82
2023/05/29 01:59:17;;;;;;;14.73;3.58;;;8.80;99.90;;;;;;5020079;28;20038;-81
2023/05/29 02:01:43;;;;;;;14.85;2.83;;;8.80;99.90;;;;;;5016191;28;20048;-81
2023/05/29 02:04:09;;;;;;;10.68;2.47;;;8.80;99.90;;;;;;5019934;28;20064;-82
2023/05/29 02:06:35;;;;;;;18.83;3.25;;;8.70;99.90;;;;;;5033177;28;20061;-82
2023/05/29 02:09:01;;;;;;;15.18;3.70;;;8.70;99.90;;;;;;5034385;28;20045;-82
2023/05/29 02:11:27;;;;;;;11.57;2.70;;;8.70;99.90;;;;;;5034140;28;20372;-81
2023/05/29 02:13:52;;;;;;;19.92;2.47;;;8.70;99.90;;;;;;5017688;28;20048;-81
2023/05/29 02:16:20;;;;;;;13.43;2.42;;;8.70;99.90;;;;;;5017834;28;20034;-82
2023/05/29 02:18:46;;;;;;;15.98;2.72;;;8.70;99.90;;;;;;5035376;28;20124;-82
2023/05/29 02:21:12;;;;;;;14.88;2.83;;;8.60;99.90;;;;;;5035803;28;20393;-81
2023/05/29 02:23:38;;;;;;;17.58;2.70;;;8.60;99.90;;;;;;5017673;28;20072;-82
2023/05/29 02:26:05;;;;;;;17.15;2.53;;;8.60;99.90;;;;;;5018489;28;20042;-82
2023/05/29 02:28:30;;;;;;;18.55;3.42;;;8.60;99.90;;;;;;5014540;28;20033;-81
2023/05/29 02:30:58;;;;;;;15.57;3.08;;;8.60;99.90;;;;;;5035422;28;20037;-80
2023/05/29 02:33:23;;;;;;;16.10;3.47;;;8.70;99.90;;;;;;5015872;28;20052;-80
2023/05/29 02:35:49;;;;;;;18.20;2.92;;;8.60;99.90;;;;;;5035301;28;20033;-80
2023/05/29 02:38:15;;;;;;;17.50;2.88;;;8.60;99.90;;;;;;5016993;28;20061;-81
2023/05/29 02:40:41;;;;;;;18.23;2.65;;;8.60;99.90;;;;;;5018797;28;20044;-81
2023/05/29 02:43:09;;;;;;;15.90;3.22;;;8.60;99.90;;;;;;5001571;28;20048;-81
2023/05/29 02:45:35;;;;;;;16.80;3.10;;;8.50;99.90;;;;;;5031589;28;20052;-80
2023/05/29 02:48:00;;;;;;;19.63;3.78;;;8.40;99.90;;;;;;5032170;28;20038;-81
2023/05/29 02:50:27;;;;;;;16.00;3.20;;;8.50;99.90;;;;;;5018335;28;20037;-81
2023/05/29 02:52:53;;;;;;;15.98;3.22;;;8.40;99.90;;;;;;5033317;28;20049;-81
2023/05/29 02:55:19;;;;;;;20.50;3.35;;;8.40;99.90;;;;;;5033025;28;20115;-80
2023/05/29 02:57:45;;;;;;;15.13;2.42;;;8.40;99.90;;;;;;5029483;28;20037;-80
2023/05/29 03:00:12;;;;;;;16.67;2.78;;;8.40;99.90;;;;;;5017409;28;20378;-81
2023/05/29 03:02:38;;;;;;;14.63;2.95;;;8.40;99.90;;;;;;5032369;28;20124;-81
2023/05/29 03:05:04;;;;;;;18.42;3.75;;;8.30;99.90;;;;;;5035137;28;20514;-81
2023/05/29 03:07:30;;;;;;;18.77;2.92;;;8.30;99.90;;;;;;5030669;28;20045;-81
2023/05/29 03:09:56;;;;;;;18.95;3.40;;;8.30;99.90;;;;;;5016893;28;20044;-81
2023/05/29 03:12:22;;;;;;;13.18;2.70;;;8.30;99.90;;;;;;5030022;28;20057;-81
2023/05/29 03:14:48;;;;;;;16.83;2.90;;;8.30;99.90;;;;;;5018111;28;20045;-81
2023/05/29 03:17:13;;;;;;;17.05;2.72;;;8.30;99.90;;;;;;5016194;28;20044;-81
2023/05/29 03:19:39;;;;;;;17.92;2.95;;;8.30;99.90;;;;;;5015817;28;20037;-81
2023/05/29 03:22:05;;;;;;;19.25;3.28;;;8.30;99.90;;;;;;5016514;28;20053;-81
2023/05/29 03:24:34;;;;;;;14.63;2.97;;;8.20;99.90;;;;;;5036393;28;20440;-81
2023/05/29 03:27:03;;;;;;;17.90;3.30;;;8.20;99.90;;;;;;5018369;28;20041;-81
2023/05/29 03:29:29;;;;;;;20.75;3.17;;;8.20;99.90;;;;;;5034339;28;20046;-81
2023/05/29 03:31:55;;;;;;;16.88;3.08;;;8.20;99.90;;;;;;5015682;28;20409;-81
2023/05/29 03:34:21;;;;;;;17.70;3.03;;;8.20;99.90;;;;;;5018006;28;20057;-81
2023/05/29 03:36:47;;;;;;;13.60;2.47;;;8.10;99.90;;;;;;5015599;28;20052;-81
2023/05/29 03:39:13;;;;;;;18.45;3.10;;;8.10;99.90;;;;;;5035145;28;20485;-81
2023/05/29 03:41:39;;;;;;;15.05;2.88;;;8.10;99.90;;;;;;5018079;28;20080;-80
2023/05/29 03:44:04;;;;;;;20.23;3.78;;;8.10;99.90;;;;;;5018385;28;20049;-81
2023/05/29 03:46:31;;;;;;;18.60;3.00;;;8.10;99.90;;;;;;5035573;28;20038;-81
2023/05/29 03:48:57;;;;;;;18.75;3.65;;;8.10;99.90;;;;;;5049522;28;20041;-80
2023/05/29 03:51:23;;;;;;;13.75;2.92;;;8.10;99.90;;;;;;5052940;28;20108;-80
2023/05/29 03:53:49;;;;;;;20.95;3.40;;;8.00;99.90;;;;;;5037065;28;20025;-80
2023/05/29 03:56:15;;;;;;;15.32;3.33;;;8.00;99.90;;;;;;5039219;28;20064;-81
2023/05/29 03:58:40;;;;;;;14.88;2.70;;;8.00;99.90;;;;;;5054577;28;20029;-79
2023/05/29 04:01:06;;;;;;;19.70;3.30;;;8.00;99.90;;;;;;5053069;28;20029;-80
2023/05/29 04:03:32;;;;;;;20.52;3.45;;;8.00;99.90;;;;;;5053466;28;20040;-80
2023/05/29 04:05:58;;;;;;;18.52;3.42;;;8.10;99.90;;;;;;5038303;28;20071;-81
2023/05/29 04:08:23;;;;;;;16.58;2.55;;;8.10;99.90;;;;;;5037264;28;20029;-80
2023/05/29 04:10:53;;;;;;;16.70;3.05;;;8.00;99.90;;;;;;5055404;28;20051;-80
2023/05/29 04:13:19;;;;;;;18.08;3.25;;;8.10;99.90;;;;;;5036043;28;20048;-81
2023/05/29 04:15:45;;;;;;;15.50;3.15;;;8.10;99.90;;;;;;5055767;28;20056;-80
2023/05/29 04:18:11;;;;;;;12.75;2.85;;;8.10;99.90;;;;;;5050652;28;20037;-80
2023/05/29 04:20:36;;;;;;;17.27;2.97;;;8.10;99.90;;;;;;5055128;28;20334;-79
2023/05/29 04:23:03;;;;;;;19.02;2.88;;;8.10;99.90;;;;;;5051867;28;20045;-80
2023/05/29 04:25:28;;;;;;;20.60;3.42;;;8.20;99.90;;;;;;5034888;28;20128;-79
2023/05/29 04:27:54;;;;;;;19.88;2.67;;;8.20;99.90;;;;;;5051100;28;20045;-80
2023/05/29 04:30:20;;;;;;;14.00;2.58;;;8.20;99.90;;;;;;5031853;28;20034;-80
2023/05/29 04:32:46;;;;;;;12.05;2.85;;;8.30;99.90;;;;;;5035217;28;20144;-78
2023/05/29 04:35:13;;;;;;;19.23;3.03;;;8.30;99.90;;;;;;5053442;28;20072;-80
2023/05/29 04:37:39;;;;;;;21.13;3.08;;;8.40;99.90;;;;;;5036252;28;20045;-80
2023/05/29 04:40:08;;;;;;;20.42;3.25;;;8.40;99.90;;;;;;5054298;28;20041;-79
2023/05/29 04:42:36;;;;;;;16.95;2.83;;;8.40;99.90;;;;;;5051627;28;20049;-80
2023/05/29 04:45:03;;;;;;;20.27;2.85;;;8.50;99.90;;;;;;5053181;28;20029;-80
2023/05/29 04:47:29;;;;;;;16.60;3.15;;;8.50;99.90;;;;;;5033158;28;20097;-80
2023/05/29 04:50:01;;;;;;;20.13;3.33;;;8.50;99.90;;;;;;5052735;28;20037;-80
2023/05/29 04:52:27;;;;;;;14.77;2.95;;;8.60;99.90;;;;;;5035397;28;20029;-79
2023/05/29 04:54:54;;;;;;;16.70;2.88;;;8.70;99.90;;;;;;5053208;28;20026;-79
2023/05/29 04:57:20;;;;;;;17.92;3.08;;;8.80;99.90;;;;;;5033638;28;20053;-80
2023/05/29 04:59:46;;;;;;;18.73;3.33;;;9.00;99.90;;;;;;5051082;28;20037;-79
2023/05/29 05:02:11;;;;;;;16.38;2.92;;;9.10;99.90;;;;;;5050482;28;20559;-78
2023/05/29 05:04:37;;;;;;;16.13;3.33;;;9.30;99.90;;;;;;5050723;28;20498;-77
2023/05/29 05:07:05;;;;;;;14.38;3.65;;;9.40;99.90;;;;;;5049297;28;20060;-79
2023/05/29 05:09:31;;;;;;;17.13;3.10;;;9.60;99.90;;;;;;5050622;28;20044;-78
2023/05/29 05:11:57;;;;;;;15.38;2.70;;;9.80;99.90;;;;;;5027131;28;20075;-77
2023/05/29 05:14:23;;;;;;;13.50;4.30;;;9.90;99.90;;;;;;5049052;28;20041;-79
2023/05/29 05:16:48;;;;;;;12.38;2.22;;;9.90;99.90;;;;;;5048459;28;20037;-79
2023/05/29 05:19:14;;;;;;;15.07;2.80;;;9.90;99.90;;;;;;5041606;28;20041;-80
2023/05/29 05:21:40;;;;;;;14.57;2.65;;;10.00;99.90;;;;;;5009788;28;20042;-80
2023/05/29 05:24:06;;;;;;;10.30;2.65;;;10.00;99.90;;;;;;5013018;28;20044;-81
2023/05/29 05:26:32;;;;;;;16.33;2.80;;;10.00;99.90;;;;;;5014458;28;20048;-80
2023/05/29 05:28:57;;;;;;;12.02;2.35;;;10.00;99.90;;;;;;5027880;28;20068;-80
2023/05/29 05:31:24;;;;;;;19.60;3.05;;;10.10;99.90;;;;;;5012538;28;20489;-80
2023/05/29 05:33:49;;;;;;;13.68;2.25;;;10.10;99.90;;;;;;5023188;28;20049;-81
2023/05/29 05:36:15;;;;;;;12.65;2.58;;;10.20;99.90;;;;;;5010743;28;20129;-81
2023/05/29 05:38:41;;;;;;;11.63;2.60;;;10.30;99.90;;;;;;5027891;28;20620;-80
2023/05/29 05:41:06;;;;;;;13.82;2.28;;;10.30;99.90;;;;;;5012164;28;20466;-81
2023/05/29 05:43:32;;;;;;;10.95;2.55;;;10.40;99.90;;;;;;5011294;28;20049;-81
2023/05/29 05:45:58;;;;;;;13.90;2.60;;;10.50;99.90;;;;;;5014481;28;20049;-81
2023/05/29 05:48:24;;;;;;;13.60;2.65;;;10.60;99.90;;;;;;5014657;28;20374;-80
2023/05/29 05:50:52;;;;;;;14.52;2.70;;;10.60;99.90;;;;;;5013961;28;20076;-80
2023/05/29 05:53:21;;;;;;;15.73;3.05;;;10.70;99.90;;;;;;5008025;28;20061;-81
2023/05/29 05:55:46;;;;;;;12.57;2.63;;;10.80;99.90;;;;;;5028361;28;20555;-80
2023/05/29 05:58:12;;;;;;;13.73;2.65;;;10.80;99.90;;;;;;5012176;28;20038;-80
2023/05/29 06:00:40;;;;;;;16.23;2.83;;;11.00;99.90;;;;;;5029093;28;20041;-81
2023/05/29 06:03:06;;;;;;;16.85;3.28;;;11.10;99.90;;;;;;5007784;28;20045;-81
2023/05/29 06:05:34;;;;;;;16.48;2.55;;;11.10;99.90;;;;;;5012175;28;20043;-80
2023/05/29 06:07:59;;;;;;;16.23;3.13;;;11.30;99.90;;;;;;5008517;28;20045;-80
2023/05/29 06:10:25;;;;;;;16.30;2.88;;;11.30;99.90;;;;;;5028935;28;20037;-80
2023/05/29 06:12:52;;;;;;;15.88;2.75;;;11.40;99.90;;;;;;4994947;28;20068;-81
2023/05/29 06:15:18;;;;;;;14.85;3.03;;;11.50;99.90;;;;;;5025649;28;20049;-81
2023/05/29 06:17:44;;;;;;;11.40;2.42;;;11.60;99.90;;;;;;5011618;28;20040;-80
2023/05/29 06:20:11;;;;;;;12.13;2.30;;;11.70;99.90;;;;;;5028369;28;20124;-81
2023/05/29 06:22:37;;;;;;;14.07;2.42;;;11.90;99.90;;;;;;5010744;28;20037;-81
2023/05/29 06:25:03;;;;;;;12.88;2.72;;;11.90;99.90;;;;;;5028781;28;20080;-81
2023/05/29 06:27:29;;;;;;;18.15;3.13;;;12.00;99.90;;;;;;5011508;28;20045;-81
2023/05/29 06:29:56;;;;;;;14.00;2.42;;;12.10;99.90;;;;;;5010926;28;20045;-81
2023/05/29 06:32:22;;;;;;;13.00;3.10;;;12.20;99.90;;;;;;5009555;28;20092;-82
2023/05/29 06:34:48;;;;;;;14.43;3.15;;;12.30;99.90;;;;;;5013887;28;20057;-82
2023/05/29 06:37:14;;;;;;;18.40;3.20;;;12.50;99.90;;;;;;5033399;28;20041;-79
2023/05/29 06:39:41;;;;;;;11.48;2.35;;;12.50;99.90;;;;;;5014812;28;20497;-80
2023/05/29 06:42:08;;;;;;;20.42;2.92;;;12.50;99.90;;;;;;5031517;28;20045;-82
2023/05/29 06:44:34;;;;;;;15.80;3.17;;;12.50;99.90;;;;;;5032357;28;20401;-82
2023/05/29 06:47:00;;;;;;;13.68;2.97;;;12.60;99.90;;;;;;5012852;28;20052;-82
2023/05/29 06:49:26;;;;;;;13.77;3.53;;;12.70;99.90;;;;;;5034265;28;20045;-82
2023/05/29 06:51:52;;;;;;;17.10;3.90;;;12.70;99.90;;;;;;5016214;28;20049;-82
2023/05/29 06:54:18;;;;;;;13.57;3.10;;;12.70;99.90;;;;;;5018383;28;20037;-83
2023/05/29 06:56:44;;;;;;;19.35;3.65;;;12.70;99.90;;;;;;5015076;28;20068;-82
2023/05/29 06:59:10;;;;;;;13.85;3.00;;;12.70;99.90;;;;;;5014032;28;20041;-83
2023/05/29 07:01:36;;;;;;;18.90;3.22;;;12.80;99.90;;;;;;5033278;28;20043;-82
2023/05/29 07:04:01;;;;;;;16.77;4.03;;;12.90;99.90;;;;;;5014102;28;20033;-83
2023/05/29 07:06:27;;;;;;;13.60;2.83;;;12.90;99.90;;;;;;5019167;28;20080;-83
2023/05/29 07:08:53;;;;;;;15.07;3.25;;;12.90;99.90;;;;;;5031529;28;20053;-84
2023/05/29 07:11:19;;;;;;;13.70;2.63;;;13.10;99.90;;;;;;5013327;28;20082;-84
2023/05/29 07:13:45;;;;;;;17.48;2.97;;;13.20;99.90;;;;;;5013705;28;20420;-82
2023/05/29 07:16:10;;;;;;;14.65;3.17;;;13.20;99.90;;;;;;5034968;28;20041;-82
2023/05/29 07:18:36;;;;;;;15.43;3.25;;;13.30;99.90;;;;;;5031705;28;20369;-82
2023/05/29 07:21:02;;;;;;;16.40;2.97;;;13.40;99.90;;;;;;5014204;28;20505;-86
2023/05/29 07:23:28;;;;;;;12.80;3.13;;;13.40;99.90;;;;;;4999093;28;20053;-83
2023/05/29 07:25:54;;;;;;;20.35;3.90;;;13.30;99.90;;;;;;5034256;28;20033;-82
2023/05/29 07:28:20;;;;;;;17.75;3.42;;;13.40;99.90;;;;;;5017209;28;20112;-82
2023/05/29 07:30:45;;;;;;;16.58;3.35;;;13.50;99.90;;;;;;5018746;28;20044;-82
2023/05/29 07:33:11;;;;;;;13.35;3.15;;;13.40;99.90;;;;;;5016477;28;20072;-83
2023/05/29 07:35:37;;;;;;;17.15;3.92;;;13.40;99.90;;;;;;5017140;28;20053;-83
2023/05/29 07:38:03;;;;;;;14.80;3.00;;;13.40;99.90;;;;;;5032844;28;20099;-83
2023/05/29 07:40:28;;;;;;;13.63;3.38;;;13.50;99.90;;;;;;5033860;28;20037;-82
2023/05/29 07:42:54;;;;;;;12.73;2.80;;;13.40;99.90;;;;;;5010360;28;20040;-80
2023/05/29 07:45:20;;;;;;;14.98;3.63;;;13.40;99.90;;;;;;5012072;28;20045;-82
2023/05/29 07:47:46;;;;;;;12.38;3.13;;;13.50;99.90;;;;;;5015826;28;20136;-82
2023/05/29 07:50:14;;;;;;;15.98;3.40;;;13.60;99.90;;;;;;5011613;28;20064;-82
2023/05/29 07:52:40;;;;;;;15.60;3.38;;;13.60;99.90;;;;;;5014675;28;20046;-83
2023/05/29 07:55:06;;;;;;;15.63;3.45;;;13.80;99.90;;;;;;5016270;28;20048;-82
2023/05/29 07:57:31;;;;;;;15.18;3.35;;;13.90;99.90;;;;;;5032028;28;20398;-82
2023/05/29 07:59:57;;;;;;;12.43;2.67;;;14.00;99.90;;;;;;5031640;28;20775;-81
2023/05/29 08:02:23;;;;;;;15.27;3.50;;;14.10;99.90;;;;;;5031680;28;20048;-82
2023/05/29 08:04:49;;;;;;;16.40;3.30;;;14.20;99.90;;;;;;5023156;28;20041;-77
2023/05/29 08:07:15;;;;;;;16.35;3.30;;;14.30;99.90;;;;;;5022257;28;20497;-78
2023/05/29 08:09:46;;;;;;;21.80;4.00;;;14.30;99.90;;;;;;5018531;28;20041;-77
2023/05/29 08:12:11;;;;;;;13.05;3.13;;;14.40;99.90;;;;;;5037696;28;20045;-78
2023/05/29 08:14:37;;;;;;;16.88;4.43;;;14.50;99.90;;;;;;5038618;28;20049;-79
2023/05/29 08:17:08;;;;;;;15.80;3.47;;;14.50;99.90;;;;;;5012903;28;20088;-81
2023/05/29 08:19:34;;;;;;;18.55;4.47;;;14.50;99.90;;;;;;5000148;28;20065;-81
2023/05/29 08:21:59;;;;;;;17.00;3.78;;;14.60;99.90;;;;;;5037676;28;20438;-81
2023/05/29 08:24:33;;;;;;;13.88;3.58;;;14.70;99.90;;;;;;5041077;28;20030;-80
2023/05/29 08:27:00;;;;;;;12.93;3.03;;;14.70;99.90;;;;;;5028062;28;20064;-83
2023/05/29 08:29:26;;;;;;;16.63;3.63;;;14.70;99.90;;;;;;5036483;28;20041;-81
2023/05/29 08:31:55;;;;;;;11.40;2.83;;;15.00;99.90;;;;;;5028435;28;20037;-79
2023/05/29 08:34:21;;;;;;;13.98;3.30;;;15.10;99.90;;;;;;5029518;28;20061;-80
2023/05/29 08:36:47;;;;;;;11.38;3.05;;;15.20;99.90;;;;;;5047110;28;20052;-80
2023/05/29 08:39:14;;;;;;;12.50;3.13;;;15.30;99.90;;;;;;5045727;28;20513;-79
2023/05/29 08:42:04;;;;;;;14.82;3.60;;;15.30;99.90;;;;;;5048395;28;20052;-81
2023/05/29 08:44:35;;;;;;;12.57;2.92;;;15.30;99.90;;;;;;5029960;28;20493;-80
2023/05/29 08:47:06;;;;;;;13.65;3.55;;;15.40;99.90;;;;;;5031326;28;20041;-80
2023/05/29 08:49:45;;;;;;;12.82;3.33;;;15.50;99.90;;;;;;5048032;28;20047;-82
2023/05/29 08:52:18;;;;;;;18.05;3.35;;;15.70;98.70;;;;;;5050534;28;20030;-80
2023/05/29 08:54:46;;;;;;;13.43;3.92;;;15.60;99.90;;;;;;5045628;28;20039;-81
2023/05/29 08:57:12;;;;;;;11.88;3.22;;;15.40;99.30;;;;;;5034608;28;20085;-80
2023/05/29 08:59:42;;;;;;;14.50;3.25;;;15.40;99.90;;;;;;5048395;28;20033;-79
2023/05/29 09:02:08;;;;;;;16.83;4.30;;;15.40;99.90;;;;;;5049470;28;20042;-80
2023/05/29 09:04:33;;;;;;;16.08;3.65;;;15.40;99.70;;;;;;5049558;28;20041;-79
2023/05/29 09:07:00;;;;;;;18.73;4.05;;;15.50;99.90;;;;;;5035360;28;20057;-80
2023/05/29 09:09:29;;;;;;;17.58;3.80;;;15.60;99.90;;;;;;5035525;28;20042;-82
2023/05/29 09:12:00;;;;;;;17.08;3.83;;;15.60;99.90;;;;;;5037107;28;20076;-80
2023/05/29 09:14:37;;;;;;;13.63;3.72;;;15.60;99.90;;;;;;5050693;28;20037;-80
2023/05/29 09:17:05;;;;;;;16.58;4.15;;;15.70;99.90;;;;;;5051550;28;20069;-81
2023/05/29 09:19:31;;;;;;;17.52;3.20;;;15.70;99.80;;;;;;5030893;28;20037;-82
2023/05/29 09:22:05;;;;;;;11.90;2.88;;;15.70;98.70;;;;;;5051126;28;20030;-78
2023/05/29 09:24:34;;;;;;;;;;;15.70;97.00;;;;;;5032866;28;20045;-82
2023/05/29 09:27:01;;;;;;;14.23;3.38;;;15.70;96.90;;;;;;5052938;28;19909;-81
2023/05/29 09:29:31;;;;;;;14.63;3.00;;;15.70;98.40;;;;;;5052198;28;20096;-82
2023/05/29 09:31:57;;;;;;;16.17;4.22;;;15.90;97.50;;;;;;5034279;28;20091;-80
2023/05/29 09:34:26;;;;;;;14.38;3.03;;;15.90;97.80;;;;;;5049486;28;20061;-79
2023/05/29 09:36:52;;;;;;;16.15;3.38;;;15.80;97.50;;;;;;5051328;28;20050;-79
2023/05/29 09:39:18;;;;;;;13.65;3.53;;;15.80;97.90;;;;;;5049703;28;20101;-78
2023/05/29 09:41:45;;;;;;;19.02;3.10;;;15.90;97.50;;;;;;5052675;28;20072;-80
2023/05/29 09:44:15;;;;;;;14.35;3.30;;;15.90;97.90;;;;;;5033391;28;20049;-80
2023/05/29 09:46:46;;;;;;;15.95;3.97;;;16.10;97.90;;;;;;5035574;28;20258;-81
2023/05/29 09:49:13;;;;;;;18.55;3.88;;;16.10;98.00;;;;;;5033414;28;20060;-79
2023/05/29 09:51:42;;;;;;;13.38;3.50;;;16.30;97.30;;;;;;5030752;28;20046;-79
2023/05/29 09:54:18;;;;;;;16.20;3.47;;;16.20;97.60;;;;;;5036323;28;20037;-80
2023/05/29 09:56:47;;;;;;;14.05;3.38;;;16.20;96.50;;;;;;5028625;28;20049;-79
2023/05/29 09:59:17;;;;;;;13.38;3.10;;;16.30;95.90;;;;;;5048658;28;20085;-79
2023/05/29 10:01:44;;;;;;;12.68;3.70;;;16.20;95.70;;;;;;5031099;28;20041;-79
2023/05/29 10:04:11;;;;;;;15.55;3.95;;;16.20;95.90;;;;;;5050837;28;20096;-78
2023/05/29 10:06:39;;;;;;;12.10;3.17;;;16.20;96.00;;;;;;5037112;28;20044;-79
2023/05/29 10:09:10;;;;;;;15.55;3.67;;;16.30;96.20;;;;;;5055310;28;20052;-80
2023/05/29 10:11:48;;;;;;;14.75;3.50;;;16.30;96.20;;;;;;5037622;28;20043;-80
2023/05/29 10:14:21;;;;;;;13.32;3.35;;;16.40;95.60;;;;;;5037866;28;20056;-81
2023/05/29 10:16:50;;;;;;;13.20;3.05;;;16.60;95.80;;;;;;5054673;28;20096;-79
2023/05/29 10:19:26;;;;;;;18.25;3.83;;;16.70;96.20;;;;;;5037163;28;20072;-79
2023/05/29 10:21:53;;;;;;;14.75;2.85;;;16.90;96.10;;;;;;5036907;28;20095;-79
2023/05/29 10:24:20;;;;;;;11.52;3.40;;;17.10;94.80;;;;;;5034225;28;20131;-79
2023/05/29 10:26:49;;;;;;;16.02;3.40;;;17.20;94.30;;;;;;5032026;28;20033;-79
2023/05/29 10:29:37;;;;;;;16.02;4.18;;;17.20;93.80;;;;;;5053046;28;20406;-79
2023/05/29 10:32:12;;;;;;;15.40;3.75;;;17.20;93.50;;;;;;5052906;28;20127;-79
2023/05/29 10:34:41;;;;;;;17.73;3.63;;;17.10;92.80;;;;;;5034566;28;20041;-78
2023/05/29 10:37:27;;;;;;;14.90;3.08;;;17.10;92.20;;;;;;5034765;28;20042;-78
2023/05/29 10:39:53;;;;;;;12.98;3.13;;;17.30;93.20;;;;;;5043797;28;20037;-79
2023/05/29 10:42:44;;;;;;;13.40;3.03;;;17.60;93.50;;;;;;5049311;28;20056;-78
2023/05/29 10:45:13;;;;;;;13.90;3.10;;;17.50;92.20;;;;;;5046842;28;20030;-79
2023/05/29 10:47:39;;;;;;;12.73;3.42;;;17.40;91.70;;;;;;5048348;28;20049;-79
2023/05/29 10:50:05;;;;;;;11.95;2.83;;;17.50;92.30;;;;;;5031971;28;20080;-80
2023/05/29 10:52:32;;;;;;;16.48;4.10;;;17.40;90.60;;;;;;5034575;28;20048;-79
2023/05/29 10:54:58;;;;;;;14.73;3.13;;;17.20;90.40;;;;;;5034347;28;20100;-79
2023/05/29 10:57:26;;;;;;;17.73;3.25;;;17.10;92.00;;;;;;5036707;28;20223;-78
2023/05/29 11:00:06;;;;;;;13.75;3.30;;;17.20;91.10;;;;;;5035990;28;20022;-79
2023/05/29 11:02:37;;;;;;;14.77;3.22;;;17.40;91.30;;;;;;5048118;28;20045;-79
2023/05/29 11:05:21;;;;;;;11.85;2.83;;;17.70;89.30;;;;;;5048125;28;20101;-78
2023/05/29 11:08:00;;;;;;;14.90;3.65;;;17.80;83.90;;;;;;5039317;28;20076;-79
2023/05/29 11:10:48;;;;;;;17.88;3.65;;;17.70;86.50;;;;;;5035124;28;20065;-83
2023/05/29 11:13:28;;;;;;;14.45;3.40;;;18.00;84.00;;;;;;5045252;28;20045;-80
2023/05/29 11:16:16;;;;;;;12.15;3.42;;;18.10;84.60;;;;;;5050710;28;20096;-80
2023/05/29 11:18:46;;;;;;;15.00;3.30;;;18.30;88.60;;;;;;5032960;28;20045;-80
2023/05/29 11:21:41;;;;;;;13.48;2.95;;;18.50;87.40;;;;;;5030079;28;20048;-85
2023/05/29 11:24:07;;;;;;;;;;;18.40;81.00;;;;;;5040977;28;20101;-80
2023/05/29 11:26:36;;;;;;;10.13;2.92;;;17.90;83.80;;;;;;5030593;28;19963;-82
2023/05/29 11:29:12;;;;;;;10.13;2.95;;;17.90;86.40;;;;;;5035408;28;20075;-81
2023/05/29 11:31:40;;;;;;;16.23;3.28;;;17.90;81.20;;;;;;5035477;28;20501;-82
2023/05/29 11:34:12;;;;;;;15.45;3.03;;;18.00;83.10;;;;;;5035533;28;20100;-81
2023/05/29 11:36:37;;;;;;;11.90;3.17;;;18.00;83.80;;;;;;5049528;28;20042;-78
2023/05/29 11:39:03;;;;;;;13.73;3.58;;;18.00;83.40;;;;;;5036215;28;20034;-81
2023/05/29 11:41:29;;;;;;;13.63;3.70;;;18.20;83.80;;;;;;5051863;28;20041;-80
2023/05/29 11:44:05;;;;;;;11.20;3.28;;;18.20;80.80;;;;;;5025332;28;20494;-82
2023/05/29 11:46:32;;;;;;;11.85;3.15;;;18.50;80.10;;;;;;5015989;28;20397;-83
2023/05/29 11:49:01;;;;;;;13.38;3.05;;;18.70;81.50;;;;;;5011189;28;20037;-82
2023/05/29 11:51:30;;;;;;;9.75;2.33;;;18.80;76.70;;;;;;5030097;28;20045;-80
2023/05/29 11:53:59;;;;;;;8.07;2.38;;;18.70;74.30;;;;;;5014382;28;20072;-82
2023/05/29 11:56:29;;;;;;;11.57;2.65;;;18.60;76.00;;;;;;5014628;28;20041;-82
2023/05/29 11:58:59;;;;;;;10.70;2.83;;;18.60;78.70;;;;;;5017421;28;20034;-83
2023/05/29 12:01:26;;;;;;;14.30;2.83;;;18.60;75.50;;;;;;5013576;28;20465;-84
2023/05/29 12:03:53;;;;;;;13.40;3.38;;;18.40;75.80;;;;;;5031472;28;20045;-83
2023/05/29 12:06:37;;;;;;;14.13;2.42;;;18.40;79.50;;;;;;5017113;28;20045;-80
2023/05/29 12:09:04;;;;;;;;;;;18.50;77.50;;;;;;5032036;28;20452;-81
2023/05/29 12:11:31;;;;;;;12.52;3.05;;;18.30;77.00;;;;;;5031921;28;19939;-81
2023/05/29 12:14:00;;;;;;;11.25;2.80;;;18.20;78.90;;;;;;5017099;28;20045;-81
2023/05/29 12:16:31;;;;;;;10.85;2.85;;;18.60;81.60;;;;;;5016762;28;20124;-83
2023/05/29 12:19:00;;;;;;;7.45;2.20;;;18.80;77.50;;;;;;5037270;28;20037;-83
2023/05/29 12:21:27;;;;;;;10.75;3.08;;;18.70;70.80;;;;;;5017283;28;20627;-86
2023/05/29 12:23:54;;;;;;;16.65;2.75;;;18.50;74.80;;;;;;5049582;28;20048;-83
2023/05/29 12:26:25;;;;;;;14.25;2.97;;;18.30;75.60;;;;;;5025087;28;20033;-85
2023/05/29 12:28:52;;;;;;;10.52;2.60;;;18.20;76.80;;;;;;5032835;28;20034;-87
2023/05/29 12:31:28;;;;;;;11.57;2.58;;;18.10;77.90;;;;;;5033649;28;20081;-83
2023/05/29 12:34:02;;;;;;;12.35;3.10;;;18.10;77.50;;;;;;5014899;28;20096;-83
2023/05/29 12:36:30;;;;;;;9.45;2.70;;;18.30;78.00;;;;;;5018694;28;20041;-85
2023/05/29 12:38:57;;;;;;;11.38;2.80;;;18.50;78.60;;;;;;5018478;28;20059;-83
2023/05/29 12:41:28;;;;;;;17.13;3.25;;;18.50;77.10;;;;;;5033447;28;20041;-84
2023/05/29 12:43:57;;;;;;;12.80;2.95;;;18.50;79.20;;;;;;5015133;28;20393;-81
2023/05/29 12:46:25;;;;;;;13.32;2.95;;;18.20;77.80;;;;;;5033801;28;20140;-84